Terminal Aerodrome Forecast
Issued by NWS

Current Version | Previous Version | Graphics & Text | Print | Product List | Glossary On
Versions: 1 2 3 4 5 6 7 8 9 10 11 12 13 14 15 16 17 18 19 20 21 22 23 24
000
FTUS41 KRLX 280248 AAA
TAFCKB
TAF AMD
KCKB 280248Z 2803/2824 23008G18KT P6SM BKN030
     FM280400 24010G17KT P6SM BKN030
     FM280600 23010G17KT 6SM -SHRA OVC020
     FM281700 25011G17KT P6SM BKN030
     FM281800 25010G17KT P6SM BKN035=

USA.gov is the U.S. government's official web portal to all federal, state and local government web resources and services.